createdAt,value
2023-01-08T12:02:02.317Z,7.80
2023-01-08T12:03:39.220Z,17.80
2023-01-08T12:05:32.532Z,18.00
2023-01-08T12:07:28.879Z,15.60
2023-01-08T12:09:38.010Z,14.20
2023-01-08T12:11:25.375Z,14.20
2023-01-08T12:13:24.878Z,15.60
2023-01-08T12:15:24.021Z,16.00
2023-01-08T12:17:19.457Z,15.00
2023-01-08T12:19:20.416Z,16.80
2023-01-08T12:21:01.382Z,17.60
2023-01-08T12:22:49.457Z,14.60
2023-01-08T12:25:13.258Z,13.40
2023-01-08T12:27:00.283Z,16.00
2023-01-08T12:29:10.552Z,14.40
2023-01-08T12:31:01.044Z,13.20
2023-01-08T12:32:44.733Z,14.20
2023-01-08T12:34:19.593Z,12.60
2023-01-08T12:35:52.972Z,13.00
2023-01-08T12:37:27.743Z,16.20
2023-01-08T12:39:02.910Z,15.00
2023-01-08T12:40:48.495Z,11.20
2023-01-08T12:42:24.628Z,15.80
2023-01-08T12:44:06.682Z,13.60
2023-01-08T12:45:43.909Z,14.80
2023-01-08T12:47:17.164Z,14.00
2023-01-08T12:48:51.904Z,12.20
2023-01-08T12:50:35.155Z,14.80
2023-01-08T12:52:18.046Z,13.40
2023-01-08T12:53:58.637Z,15.00
2023-01-08T12:55:56.357Z,12.20
2023-01-08T12:57:34.856Z,16.20
2023-01-08T12:59:24.140Z,13.80
2023-01-08T13:01:12.100Z,13.80
2023-01-08T13:03:01.399Z,12.20
2023-01-08T13:04:46.545Z,14.00
2023-01-08T13:06:19.014Z,12.60
2023-01-08T13:07:58.958Z,15.20
2023-01-08T13:09:31.103Z,13.40
2023-01-08T13:11:03.113Z,14.60
2023-01-08T13:12:36.745Z,14.40
2023-01-08T13:14:10.298Z,13.40
2023-01-08T13:15:42.217Z,13.20
2023-01-08T13:17:19.575Z,17.00
2023-01-08T13:19:04.420Z,14.40
2023-01-08T13:20:36.283Z,14.60
2023-01-08T13:22:33.427Z,14.20
2023-01-08T13:24:34.819Z,8.00
2023-01-08T13:26:06.899Z,13.00
2023-01-08T13:27:38.776Z,13.40
2023-01-08T13:29:27.138Z,7.20
2023-01-08T13:31:09.069Z,15.20
2023-01-08T13:32:45.937Z,15.40
2023-01-08T13:34:42.448Z,15.00
2023-01-08T13:36:21.514Z,13.40
2023-01-08T13:38:06.708Z,15.40
2023-01-08T13:39:39.130Z,15.00
2023-01-08T13:41:26.215Z,10.80
2023-01-08T13:43:00.648Z,14.40
2023-01-08T13:44:36.083Z,14.20
2023-01-08T13:46:15.895Z,10.20
2023-01-08T13:47:47.808Z,13.00
2023-01-08T13:49:23.694Z,13.60
2023-01-08T13:50:55.563Z,13.80
2023-01-08T13:52:30.096Z,15.00
2023-01-08T13:54:16.373Z,13.80
2023-01-08T13:56:07.537Z,14.00
2023-01-08T13:57:41.650Z,16.60
2023-01-08T13:59:31.348Z,16.00
2023-01-08T14:01:03.413Z,16.20
2023-01-08T14:02:50.440Z,14.80
2023-01-08T14:04:25.438Z,15.60
2023-01-08T14:06:31.524Z,16.40
2023-01-08T14:08:03.451Z,12.60
2023-01-08T14:09:35.277Z,14.20
2023-01-08T14:11:07.136Z,15.20
2023-01-08T14:12:39.047Z,15.00
2023-01-08T14:14:21.279Z,17.40
2023-01-08T14:15:53.332Z,15.00
2023-01-08T14:17:29.083Z,16.80
2023-01-08T14:19:01.506Z,21.20
2023-01-08T14:20:37.566Z,23.00
2023-01-08T14:22:14.483Z,33.00
2023-01-08T14:23:47.167Z,34.75
2023-01-08T14:25:20.140Z,38.50
2023-01-08T14:26:58.861Z,43.75
2023-01-08T14:28:30.739Z,45.75
2023-01-08T14:30:02.628Z,52.25
2023-01-08T14:31:34.570Z,60.50
2023-01-08T14:33:11.014Z,61.00
2023-01-08T14:34:42.895Z,73.40
2023-01-08T14:36:14.803Z,75.20
2023-01-08T14:37:46.616Z,77.00
2023-01-08T14:39:27.054Z,74.25
2023-01-08T14:41:54.786Z,82.00
2023-01-08T14:43:27.171Z,86.00
2023-01-08T14:45:04.595Z,87.25
2023-01-08T14:46:36.494Z,85.75
2023-01-08T14:48:13.889Z,91.50
2023-01-08T14:49:52.953Z,98.25
2023-01-08T14:51:26.410Z,100.25
2023-01-08T14:53:00.526Z,98.00
2023-01-08T14:54:34.281Z,98.25
2023-01-08T14:56:06.473Z,88.75
2023-01-08T14:57:38.361Z,95.75
2023-01-08T14:59:10.488Z,110.75
2023-01-08T15:00:42.376Z,91.50
2023-01-08T15:02:31.246Z,90.00
2023-01-08T15:04:17.424Z,94.50
2023-01-08T15:05:49.796Z,93.75
2023-01-08T15:07:24.251Z,86.00
2023-01-08T15:08:56.407Z,72.75
2023-01-08T15:10:34.291Z,70.20
2023-01-08T15:12:07.207Z,62.00
2023-01-08T15:13:39.126Z,55.75
2023-01-08T15:15:22.501Z,55.75
2023-01-08T15:16:59.596Z,56.00
2023-01-08T15:18:31.620Z,56.00
2023-01-08T15:20:03.637Z,60.25
2023-01-08T15:21:35.546Z,31.50
2023-01-08T15:23:15.488Z,62.75
2023-01-08T15:24:55.776Z,61.75
2023-01-08T15:26:27.812Z,69.60
2023-01-08T15:28:01.052Z,60.50
2023-01-08T15:29:37.244Z,58.25
2023-01-08T15:31:09.141Z,61.00
2023-01-08T15:32:41.217Z,53.25
2023-01-08T15:34:13.019Z,48.75
2023-01-08T15:35:44.904Z,47.50
2023-01-08T15:37:16.987Z,47.25
2023-01-08T15:38:49.425Z,47.00
2023-01-08T15:40:21.256Z,44.75
2023-01-08T15:42:11.533Z,46.75
2023-01-08T15:43:43.414Z,46.25
2023-01-08T15:45:16.907Z,40.25
2023-01-08T15:46:49.412Z,41.75
2023-01-08T15:48:21.267Z,40.75
2023-01-08T15:49:54.706Z,45.50
2023-01-08T15:51:26.895Z,41.00
2023-01-08T15:53:01.193Z,40.75
2023-01-08T15:54:33.118Z,46.00
2023-01-08T15:56:05.167Z,41.00
2023-01-08T15:57:38.613Z,42.75
2023-01-08T15:59:12.344Z,46.75
2023-01-08T16:00:45.110Z,39.50
2023-01-08T16:02:17.131Z,36.75
2023-01-08T16:03:49.895Z,37.00
2023-01-08T16:05:22.997Z,39.00
2023-01-08T16:06:54.925Z,39.75
2023-01-08T16:08:26.854Z,44.50
2023-01-08T16:09:58.738Z,45.50
2023-01-08T16:11:30.576Z,52.25
2023-01-08T16:13:02.620Z,52.00
2023-01-08T16:14:38.023Z,47.00
2023-01-08T16:16:10.681Z,57.50
2023-01-08T16:17:42.952Z,61.25
2023-01-08T16:19:14.851Z,62.50
2023-01-08T16:20:46.728Z,63.25
2023-01-08T16:22:18.638Z,64.00
2023-01-08T16:23:50.603Z,65.50
2023-01-08T16:25:23.566Z,70.25
2023-01-08T16:26:55.478Z,67.00
2023-01-08T16:28:27.352Z,72.80
2023-01-08T16:29:59.413Z,64.20
2023-01-08T16:31:31.331Z,73.60
2023-01-08T16:33:03.263Z,80.50
2023-01-08T16:34:35.254Z,79.00
2023-01-08T16:36:08.358Z,81.75
2023-01-08T16:37:40.260Z,88.50
2023-01-08T16:39:12.111Z,83.25
2023-01-08T16:40:43.999Z,86.25
2023-01-08T16:42:15.799Z,90.50
2023-01-08T16:43:47.812Z,89.75
2023-01-08T16:45:19.935Z,91.25
2023-01-08T16:46:51.897Z,84.25
2023-01-08T16:48:23.816Z,89.25
2023-01-08T16:49:55.808Z,89.00
2023-01-08T16:51:28.051Z,86.25
2023-01-08T16:52:59.988Z,88.50
2023-01-08T16:54:33.168Z,88.75
2023-01-08T16:56:05.418Z,86.50
2023-01-08T16:57:37.520Z,91.00
2023-01-08T16:59:22.392Z,90.50
2023-01-08T17:00:55.999Z,86.50
2023-01-08T17:02:28.004Z,84.75
2023-01-08T17:04:00.672Z,79.75
2023-01-08T17:05:32.944Z,80.00
2023-01-08T17:07:04.955Z,80.75
2023-01-08T17:08:43.330Z,85.50
2023-01-08T17:10:15.424Z,90.00
2023-01-08T17:11:48.000Z,94.25
2023-01-08T17:13:19.888Z,92.00
2023-01-08T17:14:51.912Z,91.25
2023-01-08T17:16:23.942Z,93.50
2023-01-08T17:17:55.963Z,94.00
2023-01-08T17:19:27.978Z,92.25
2023-01-08T17:21:00.185Z,99.00
2023-01-08T17:22:32.065Z,86.00
2023-01-08T17:24:04.415Z,91.25
2023-01-08T17:25:40.591Z,95.25
2023-01-08T17:27:12.534Z,92.25
2023-01-08T17:28:45.237Z,88.00
2023-01-08T17:30:17.337Z,90.00
2023-01-08T17:31:49.287Z,95.50
2023-01-08T17:33:21.333Z,92.00
2023-01-08T17:34:53.503Z,88.00
2023-01-08T17:36:26.408Z,85.25
2023-01-08T17:37:58.204Z,86.25
2023-01-08T17:39:30.127Z,98.75
2023-01-08T17:41:02.721Z,89.25
2023-01-08T17:42:34.660Z,80.50
2023-01-08T17:44:07.203Z,81.50
2023-01-08T17:45:39.335Z,80.50
2023-01-08T17:47:12.322Z,71.00
2023-01-08T17:48:44.992Z,74.40
2023-01-08T17:50:17.788Z,77.20
2023-01-08T17:51:50.407Z,76.50
2023-01-08T17:53:22.404Z,86.00
2023-01-08T17:54:54.453Z,83.50
2023-01-08T17:56:26.383Z,79.25
2023-01-08T17:57:58.496Z,77.00
2023-01-08T17:59:31.274Z,74.25
2023-01-08T18:01:03.337Z,86.00
2023-01-08T18:02:35.633Z,86.50
2023-01-08T18:04:07.713Z,85.00
2023-01-08T18:05:39.609Z,85.50
2023-01-08T18:07:11.487Z,85.00
2023-01-08T18:08:43.624Z,72.00
2023-01-08T18:10:15.991Z,79.75
2023-01-08T18:11:47.953Z,80.25
2023-01-08T18:13:20.031Z,77.75
2023-01-08T18:14:51.972Z,86.50
2023-01-08T18:16:24.301Z,74.50
2023-01-08T18:17:56.219Z,74.25
2023-01-08T18:19:28.093Z,73.00
2023-01-08T18:20:59.962Z,96.00
2023-01-08T18:22:31.875Z,88.25
2023-01-08T18:24:03.869Z,91.75
2023-01-08T18:25:40.255Z,72.00
2023-01-08T18:27:12.198Z,72.80
2023-01-08T18:28:44.079Z,68.00
2023-01-08T18:30:16.082Z,69.80
2023-01-08T18:31:48.364Z,65.00
2023-01-08T18:33:20.370Z,68.60
2023-01-08T18:34:53.110Z,64.60
2023-01-08T18:36:24.934Z,53.80
2023-01-08T18:37:57.240Z,77.60
2023-01-08T18:39:30.059Z,73.80
2023-01-08T18:41:02.002Z,73.40
2023-01-08T18:42:34.178Z,74.00
2023-01-08T18:44:06.905Z,82.50
2023-01-08T18:45:39.658Z,76.50
2023-01-08T18:47:12.644Z,79.25
2023-01-08T18:48:44.535Z,76.25
2023-01-08T18:50:16.759Z,75.00
2023-01-08T18:51:48.660Z,66.40
2023-01-08T18:53:20.558Z,76.00
2023-01-08T18:54:53.719Z,76.00
2023-01-08T18:56:30.334Z,77.25
2023-01-08T18:58:03.439Z,79.50
2023-01-08T18:59:35.373Z,83.50
2023-01-08T19:01:07.461Z,83.50
2023-01-08T19:02:39.969Z,84.25
2023-01-08T19:04:16.144Z,109.00
2023-01-08T19:05:48.022Z,97.25
2023-01-08T19:07:20.114Z,98.25
2023-01-08T19:08:52.077Z,92.50
2023-01-08T19:10:24.058Z,90.00
2023-01-08T19:11:55.933Z,99.25
2023-01-08T19:13:27.741Z,90.50
2023-01-08T19:14:59.635Z,94.25
2023-01-08T19:16:31.563Z,89.50
2023-01-08T19:18:05.012Z,85.75
2023-01-08T19:19:37.361Z,85.75
2023-01-08T19:21:09.810Z,97.75
2023-01-08T19:22:41.673Z,88.75
2023-01-08T19:24:13.680Z,82.25
2023-01-08T19:25:45.637Z,79.50
2023-01-08T19:27:17.659Z,81.00
2023-01-08T19:28:49.491Z,87.25
2023-01-08T19:30:21.421Z,82.25
2023-01-08T19:31:53.344Z,79.25
2023-01-08T19:33:25.509Z,78.25
2023-01-08T19:34:57.411Z,79.50
2023-01-08T19:36:29.316Z,77.40
2023-01-08T19:38:01.356Z,69.80
2023-01-08T19:39:33.281Z,72.20
2023-01-08T19:41:05.670Z,68.40
2023-01-08T19:42:56.095Z,66.25
2023-01-08T19:44:28.056Z,68.80
2023-01-08T19:46:08.737Z,68.20
2023-01-08T19:47:41.082Z,65.25
2023-01-08T19:49:12.975Z,64.00
2023-01-08T19:50:47.220Z,60.75
2023-01-08T19:52:19.963Z,61.75
2023-01-08T19:53:52.673Z,57.75
2023-01-08T19:55:24.538Z,57.25
2023-01-08T19:56:56.449Z,51.50
2023-01-08T19:58:29.565Z,56.00
2023-01-08T20:00:01.493Z,52.50
2023-01-08T20:01:43.606Z,49.25
2023-01-08T20:03:19.751Z,48.25
2023-01-08T20:04:52.027Z,48.25
2023-01-08T20:06:25.114Z,50.00
2023-01-08T20:07:56.948Z,41.25
2023-01-08T20:09:29.199Z,44.00
2023-01-08T20:11:19.448Z,43.25
2023-01-08T20:12:51.398Z,38.75
2023-01-08T20:14:23.295Z,41.25
2023-01-08T20:15:57.096Z,41.75
2023-01-08T20:17:29.285Z,36.75
2023-01-08T20:19:04.774Z,36.50
2023-01-08T20:20:36.664Z,37.00
2023-01-08T20:22:08.621Z,35.50
2023-01-08T20:23:40.752Z,44.75
2023-01-08T20:25:12.602Z,34.00
2023-01-08T20:26:44.809Z,36.25
2023-01-08T20:28:16.712Z,35.00
2023-01-08T20:29:48.671Z,34.50
2023-01-08T20:31:21.137Z,33.00
2023-01-08T20:32:53.056Z,33.25
2023-01-08T20:34:25.000Z,33.40
2023-01-08T20:35:56.929Z,34.50
2023-01-08T20:37:32.396Z,38.75
2023-01-08T20:39:09.507Z,44.75
2023-01-08T20:40:41.699Z,50.75
2023-01-08T20:42:17.673Z,47.25
2023-01-08T20:43:56.298Z,52.00
2023-01-08T20:45:28.213Z,54.75
2023-01-08T20:47:00.796Z,54.75
2023-01-08T20:48:37.054Z,50.25
2023-01-08T20:50:19.353Z,54.50
2023-01-08T20:51:58.525Z,49.50
2023-01-08T20:53:31.616Z,62.25
2023-01-08T20:55:04.219Z,64.75
2023-01-08T20:56:36.095Z,66.60
2023-01-08T20:58:07.931Z,75.00
2023-01-08T20:59:39.835Z,70.25
2023-01-08T21:01:19.964Z,66.00
2023-01-08T21:02:51.932Z,72.25
2023-01-08T21:04:23.969Z,69.75
2023-01-08T21:05:55.867Z,76.50
2023-01-08T21:07:30.077Z,78.50
2023-01-08T21:09:08.953Z,79.25
2023-01-08T21:10:41.046Z,69.40
2023-01-08T21:12:13.210Z,74.00
2023-01-08T21:13:45.255Z,73.80
2023-01-08T21:15:17.434Z,72.20
2023-01-08T21:16:49.494Z,68.20
2023-01-08T21:18:23.412Z,69.00
2023-01-08T21:19:55.364Z,73.80
2023-01-08T21:21:33.156Z,66.60
2023-01-08T21:23:05.103Z,71.80
2023-01-08T21:24:37.341Z,70.20
2023-01-08T21:26:10.283Z,63.40
2023-01-08T21:27:42.141Z,63.60
2023-01-08T21:29:14.864Z,65.25
2023-01-08T21:30:46.792Z,64.25
2023-01-08T21:32:18.818Z,56.00
2023-01-08T21:33:51.512Z,67.00
2023-01-08T21:35:25.568Z,66.00
2023-01-08T21:36:57.564Z,61.50
2023-01-08T21:38:32.914Z,57.75
2023-01-08T21:40:05.408Z,75.40
2023-01-08T21:41:55.767Z,72.20
2023-01-08T21:43:46.507Z,66.00
2023-01-08T21:45:27.842Z,67.80
2023-01-08T21:47:00.538Z,73.60
2023-01-08T21:48:32.497Z,77.50
2023-01-08T21:50:04.653Z,78.25
2023-01-08T21:51:54.848Z,77.75
2023-01-08T21:53:34.190Z,77.50
2023-01-08T21:55:08.346Z,73.50
2023-01-08T21:56:40.775Z,76.50
2023-01-08T21:58:12.597Z,76.00
2023-01-08T21:59:44.525Z,78.50
2023-01-08T22:01:16.544Z,74.25
2023-01-08T22:02:48.431Z,75.25
2023-01-08T22:04:20.330Z,75.50
2023-01-08T22:06:03.460Z,73.00
2023-01-08T22:07:35.509Z,73.80
2023-01-08T22:09:07.419Z,67.80
2023-01-08T22:10:40.536Z,64.25
2023-01-08T22:12:14.219Z,78.00
2023-01-08T22:13:46.296Z,78.50
2023-01-08T22:15:19.546Z,83.00
2023-01-08T22:16:51.491Z,80.50
2023-01-08T22:18:23.696Z,78.75
2023-01-08T22:19:55.983Z,82.50
2023-01-08T22:21:27.861Z,83.00
2023-01-08T22:22:59.867Z,84.00
2023-01-08T22:24:31.822Z,78.25
2023-01-08T22:26:05.242Z,82.75
2023-01-08T22:27:37.209Z,88.00
2023-01-08T22:29:09.124Z,88.25
2023-01-08T22:30:41.063Z,89.00
2023-01-08T22:32:13.019Z,81.25
2023-01-08T22:33:44.945Z,73.00
2023-01-08T22:35:16.941Z,84.00
2023-01-08T22:36:52.450Z,83.00
2023-01-08T22:38:24.275Z,79.25
2023-01-08T22:39:56.497Z,77.25
2023-01-08T22:41:28.474Z,65.75
2023-01-08T22:43:00.471Z,73.25
2023-01-08T22:44:32.372Z,77.25
2023-01-08T22:46:04.319Z,77.00
2023-01-08T22:47:36.402Z,78.50
2023-01-08T22:49:10.780Z,75.00
2023-01-08T22:50:42.676Z,73.60
2023-01-08T22:52:14.788Z,72.80
2023-01-08T22:53:46.657Z,73.40
2023-01-08T22:55:18.542Z,70.40
2023-01-08T22:56:50.516Z,67.80
2023-01-08T22:58:22.522Z,72.40
2023-01-08T22:59:54.430Z,62.80
2023-01-08T23:01:27.694Z,65.00
2023-01-08T23:02:59.736Z,64.60
2023-01-08T23:04:31.713Z,60.75
2023-01-08T23:06:03.821Z,64.25
2023-01-08T23:07:35.772Z,60.00
2023-01-08T23:09:07.877Z,57.75
2023-01-08T23:10:39.846Z,58.00
2023-01-08T23:12:11.807Z,52.50
2023-01-08T23:13:43.880Z,58.50
2023-01-08T23:15:15.953Z,56.75
2023-01-08T23:16:48.043Z,39.50
2023-01-08T23:18:19.953Z,53.25
2023-01-08T23:19:51.824Z,55.00
2023-01-08T23:21:25.188Z,54.25
2023-01-08T23:22:57.180Z,52.00
2023-01-08T23:24:30.767Z,47.75
2023-01-08T23:26:07.641Z,48.25
2023-01-08T23:27:39.546Z,51.50
2023-01-08T23:29:11.633Z,45.50
2023-01-08T23:30:43.487Z,44.75
2023-01-08T23:32:15.537Z,42.50
2023-01-08T23:33:47.653Z,46.75
